sensor_id;sensor_type;location;lat;lon;timestamp;P1;durP1;ratioP1;P2;durP2;ratioP2
64351;SDS011;50680;52.626;-8.668;2023-05-13T00:01:43;4.97;;;3.28;;
64351;SDS011;50680;52.626;-8.668;2023-05-13T00:04:09;7.60;;;3.42;;
64351;SDS011;50680;52.626;-8.668;2023-05-13T00:06:36;10.40;;;4.82;;
64351;SDS011;50680;52.626;-8.668;2023-05-13T00:09:03;9.10;;;4.38;;
64351;SDS011;50680;52.626;-8.668;2023-05-13T00:11:30;10.57;;;5.00;;
64351;SDS011;50680;52.626;-8.668;2023-05-13T00:13:57;10.32;;;4.38;;
64351;SDS011;50680;52.626;-8.668;2023-05-13T00:16:24;9.38;;;3.85;;
64351;SDS011;50680;52.626;-8.668;2023-05-13T00:18:53;10.43;;;4.55;;
64351;SDS011;50680;52.626;-8.668;2023-05-13T00:21:21;6.43;;;3.97;;
64351;SDS011;50680;52.626;-8.668;2023-05-13T00:23:48;8.30;;;4.05;;
64351;SDS011;50680;52.626;-8.668;2023-05-13T00:26:15;9.05;;;4.88;;
64351;SDS011;50680;52.626;-8.668;2023-05-13T00:28:42;11.50;;;4.25;;
64351;SDS011;50680;52.626;-8.668;2023-05-13T00:31:09;7.22;;;3.97;;
64351;SDS011;50680;52.626;-8.668;2023-05-13T00:33:36;11.05;;;4.30;;
64351;SDS011;50680;52.626;-8.668;2023-05-13T00:36:03;11.55;;;3.05;;
64351;SDS011;50680;52.626;-8.668;2023-05-13T00:38:31;7.65;;;4.35;;
64351;SDS011;50680;52.626;-8.668;2023-05-13T00:40:58;8.27;;;3.65;;
64351;SDS011;50680;52.626;-8.668;2023-05-13T00:43:24;8.80;;;4.15;;
64351;SDS011;50680;52.626;-8.668;2023-05-13T00:45:51;10.73;;;4.75;;
64351;SDS011;50680;52.626;-8.668;2023-05-13T00:48:18;12.30;;;4.65;;
64351;SDS011;50680;52.626;-8.668;2023-05-13T00:50:45;8.35;;;4.25;;
64351;SDS011;50680;52.626;-8.668;2023-05-13T00:53:13;12.55;;;5.70;;
64351;SDS011;50680;52.626;-8.668;2023-05-13T00:55:42;11.20;;;5.50;;
64351;SDS011;50680;52.626;-8.668;2023-05-13T00:58:09;12.20;;;5.75;;
64351;SDS011;50680;52.626;-8.668;2023-05-13T01:00:38;13.25;;;5.78;;
64351;SDS011;50680;52.626;-8.668;2023-05-13T01:03:13;9.77;;;4.95;;
64351;SDS011;50680;52.626;-8.668;2023-05-13T01:08:57;15.00;;;5.25;;
64351;SDS011;50680;52.626;-8.668;2023-05-13T01:11:30;11.77;;;4.97;;
64351;SDS011;50680;52.626;-8.668;2023-05-13T01:14:08;12.35;;;6.82;;
64351;SDS011;50680;52.626;-8.668;2023-05-13T01:16:45;12.93;;;6.43;;
64351;SDS011;50680;52.626;-8.668;2023-05-13T01:22:09;17.05;;;5.65;;
64351;SDS011;50680;52.626;-8.668;2023-05-13T01:24:36;8.43;;;4.68;;
64351;SDS011;50680;52.626;-8.668;2023-05-13T01:27:03;13.90;;;5.82;;
64351;SDS011;50680;52.626;-8.668;2023-05-13T01:29:31;13.90;;;6.30;;
64351;SDS011;50680;52.626;-8.668;2023-05-13T01:31:58;13.00;;;6.35;;
64351;SDS011;50680;52.626;-8.668;2023-05-13T01:34:26;12.27;;;6.13;;
64351;SDS011;50680;52.626;-8.668;2023-05-13T01:36:54;13.25;;;5.95;;
64351;SDS011;50680;52.626;-8.668;2023-05-13T01:39:21;16.02;;;7.25;;
64351;SDS011;50680;52.626;-8.668;2023-05-13T01:41:49;18.73;;;7.40;;
64351;SDS011;50680;52.626;-8.668;2023-05-13T01:44:16;15.85;;;7.00;;
64351;SDS011;50680;52.626;-8.668;2023-05-13T01:46:43;14.35;;;6.78;;
64351;SDS011;50680;52.626;-8.668;2023-05-13T01:49:10;13.30;;;6.68;;
64351;SDS011;50680;52.626;-8.668;2023-05-13T01:51:37;15.85;;;6.13;;
64351;SDS011;50680;52.626;-8.668;2023-05-13T01:54:05;10.50;;;6.25;;
64351;SDS011;50680;52.626;-8.668;2023-05-13T01:56:32;12.40;;;6.28;;
64351;SDS011;50680;52.626;-8.668;2023-05-13T01:58:59;14.02;;;6.65;;
64351;SDS011;50680;52.626;-8.668;2023-05-13T02:01:26;17.73;;;6.75;;
64351;SDS011;50680;52.626;-8.668;2023-05-13T02:03:53;17.27;;;7.28;;
64351;SDS011;50680;52.626;-8.668;2023-05-13T02:06:20;20.08;;;8.27;;
64351;SDS011;50680;52.626;-8.668;2023-05-13T02:08:46;18.27;;;8.18;;
64351;SDS011;50680;52.626;-8.668;2023-05-13T02:11:13;35.78;;;9.57;;
64351;SDS011;50680;52.626;-8.668;2023-05-13T02:13:40;27.95;;;8.63;;
64351;SDS011;50680;52.626;-8.668;2023-05-13T02:16:07;19.23;;;7.25;;
64351;SDS011;50680;52.626;-8.668;2023-05-13T02:18:36;29.00;;;7.60;;
64351;SDS011;50680;52.626;-8.668;2023-05-13T02:21:03;31.38;;;8.55;;
64351;SDS011;50680;52.626;-8.668;2023-05-13T02:23:30;38.35;;;8.90;;
64351;SDS011;50680;52.626;-8.668;2023-05-13T02:25:56;72.43;;;10.40;;
64351;SDS011;50680;52.626;-8.668;2023-05-13T02:28:23;49.70;;;10.00;;
64351;SDS011;50680;52.626;-8.668;2023-05-13T02:30:50;92.15;;;10.57;;
64351;SDS011;50680;52.626;-8.668;2023-05-13T02:33:17;61.65;;;9.55;;
64351;SDS011;50680;52.626;-8.668;2023-05-13T02:35:44;92.72;;;11.77;;
64351;SDS011;50680;52.626;-8.668;2023-05-13T02:38:11;131.35;;;13.30;;
64351;SDS011;50680;52.626;-8.668;2023-05-13T02:40:38;164.13;;;12.35;;
64351;SDS011;50680;52.626;-8.668;2023-05-13T02:43:05;245.40;;;17.42;;
64351;SDS011;50680;52.626;-8.668;2023-05-13T02:45:32;344.10;;;20.05;;
64351;SDS011;50680;52.626;-8.668;2023-05-13T02:47:59;310.70;;;20.08;;
64351;SDS011;50680;52.626;-8.668;2023-05-13T02:50:25;233.55;;;18.58;;
64351;SDS011;50680;52.626;-8.668;2023-05-13T02:52:52;208.30;;;13.27;;
64351;SDS011;50680;52.626;-8.668;2023-05-13T02:55:19;241.52;;;16.95;;
64351;SDS011;50680;52.626;-8.668;2023-05-13T02:57:46;269.70;;;18.25;;
64351;SDS011;50680;52.626;-8.668;2023-05-13T03:00:13;253.52;;;17.70;;
64351;SDS011;50680;52.626;-8.668;2023-05-13T03:02:40;273.38;;;14.20;;
64351;SDS011;50680;52.626;-8.668;2023-05-13T03:05:07;356.40;;;16.70;;
64351;SDS011;50680;52.626;-8.668;2023-05-13T03:07:34;381.75;;;18.65;;
64351;SDS011;50680;52.626;-8.668;2023-05-13T03:10:01;228.07;;;12.55;;
64351;SDS011;50680;52.626;-8.668;2023-05-13T03:12:28;171.02;;;14.93;;
64351;SDS011;50680;52.626;-8.668;2023-05-13T03:14:55;157.40;;;9.55;;
64351;SDS011;50680;52.626;-8.668;2023-05-13T03:17:22;149.48;;;9.25;;
64351;SDS011;50680;52.626;-8.668;2023-05-13T03:19:50;109.55;;;9.68;;
64351;SDS011;50680;52.626;-8.668;2023-05-13T03:22:17;76.28;;;9.57;;
64351;SDS011;50680;52.626;-8.668;2023-05-13T03:24:44;66.55;;;11.27;;
64351;SDS011;50680;52.626;-8.668;2023-05-13T03:27:10;69.85;;;10.13;;
64351;SDS011;50680;52.626;-8.668;2023-05-13T03:29:37;119.10;;;10.80;;
64351;SDS011;50680;52.626;-8.668;2023-05-13T03:32:04;55.45;;;8.88;;
64351;SDS011;50680;52.626;-8.668;2023-05-13T03:34:32;37.13;;;8.68;;
64351;SDS011;50680;52.626;-8.668;2023-05-13T03:37:01;74.18;;;9.43;;
64351;SDS011;50680;52.626;-8.668;2023-05-13T03:39:28;60.60;;;8.32;;
64351;SDS011;50680;52.626;-8.668;2023-05-13T03:41:56;44.50;;;7.78;;
64351;SDS011;50680;52.626;-8.668;2023-05-13T03:44:23;48.33;;;6.18;;
64351;SDS011;50680;52.626;-8.668;2023-05-13T03:46:50;10.60;;;5.60;;
64351;SDS011;50680;52.626;-8.668;2023-05-13T03:49:17;28.38;;;6.78;;
64351;SDS011;50680;52.626;-8.668;2023-05-13T03:51:44;29.40;;;5.70;;
64351;SDS011;50680;52.626;-8.668;2023-05-13T03:54:11;27.20;;;4.82;;
64351;SDS011;50680;52.626;-8.668;2023-05-13T03:56:37;26.00;;;5.72;;
64351;SDS011;50680;52.626;-8.668;2023-05-13T03:59:04;31.13;;;5.80;;
64351;SDS011;50680;52.626;-8.668;2023-05-13T04:01:31;101.65;;;7.90;;
64351;SDS011;50680;52.626;-8.668;2023-05-13T04:03:58;40.83;;;7.10;;
64351;SDS011;50680;52.626;-8.668;2023-05-13T04:06:25;91.18;;;8.00;;
64351;SDS011;50680;52.626;-8.668;2023-05-13T04:08:51;43.88;;;6.28;;
64351;SDS011;50680;52.626;-8.668;2023-05-13T04:11:18;48.85;;;6.75;;
64351;SDS011;50680;52.626;-8.668;2023-05-13T04:13:45;110.28;;;10.13;;
64351;SDS011;50680;52.626;-8.668;2023-05-13T04:16:12;39.92;;;6.60;;
64351;SDS011;50680;52.626;-8.668;2023-05-13T04:18:39;119.85;;;7.95;;
64351;SDS011;50680;52.626;-8.668;2023-05-13T04:21:06;152.13;;;9.38;;
64351;SDS011;50680;52.626;-8.668;2023-05-13T04:23:34;121.25;;;8.43;;
64351;SDS011;50680;52.626;-8.668;2023-05-13T04:26:01;115.28;;;8.10;;
64351;SDS011;50680;52.626;-8.668;2023-05-13T04:28:28;81.03;;;6.22;;
64351;SDS011;50680;52.626;-8.668;2023-05-13T04:30:55;111.85;;;9.77;;
64351;SDS011;50680;52.626;-8.668;2023-05-13T04:33:21;112.47;;;11.65;;
64351;SDS011;50680;52.626;-8.668;2023-05-13T04:35:48;38.42;;;6.10;;
64351;SDS011;50680;52.626;-8.668;2023-05-13T04:38:15;105.03;;;10.32;;
64351;SDS011;50680;52.626;-8.668;2023-05-13T04:40:42;104.45;;;8.93;;
64351;SDS011;50680;52.626;-8.668;2023-05-13T04:43:10;107.28;;;7.32;;
64351;SDS011;50680;52.626;-8.668;2023-05-13T04:45:37;87.47;;;7.38;;
64351;SDS011;50680;52.626;-8.668;2023-05-13T04:48:05;84.05;;;8.73;;
64351;SDS011;50680;52.626;-8.668;2023-05-13T04:50:32;54.78;;;5.88;;
64351;SDS011;50680;52.626;-8.668;2023-05-13T04:52:59;82.63;;;7.45;;
64351;SDS011;50680;52.626;-8.668;2023-05-13T04:55:26;158.65;;;12.27;;
64351;SDS011;50680;52.626;-8.668;2023-05-13T04:57:53;232.98;;;12.80;;
64351;SDS011;50680;52.626;-8.668;2023-05-13T05:00:20;222.65;;;11.90;;
64351;SDS011;50680;52.626;-8.668;2023-05-13T05:02:47;76.03;;;10.45;;
64351;SDS011;50680;52.626;-8.668;2023-05-13T05:05:14;179.50;;;11.75;;
64351;SDS011;50680;52.626;-8.668;2023-05-13T05:07:43;137.57;;;11.48;;
64351;SDS011;50680;52.626;-8.668;2023-05-13T05:10:10;241.98;;;17.55;;
64351;SDS011;50680;52.626;-8.668;2023-05-13T05:12:37;389.92;;;24.20;;
64351;SDS011;50680;52.626;-8.668;2023-05-13T05:15:04;277.80;;;15.38;;
64351;SDS011;50680;52.626;-8.668;2023-05-13T05:17:32;343.08;;;17.58;;
64351;SDS011;50680;52.626;-8.668;2023-05-13T05:19:59;326.10;;;17.40;;
64351;SDS011;50680;52.626;-8.668;2023-05-13T05:22:26;226.57;;;15.25;;
64351;SDS011;50680;52.626;-8.668;2023-05-13T05:24:53;162.45;;;10.52;;
64351;SDS011;50680;52.626;-8.668;2023-05-13T05:27:19;172.65;;;10.18;;
64351;SDS011;50680;52.626;-8.668;2023-05-13T05:29:46;267.70;;;17.92;;
64351;SDS011;50680;52.626;-8.668;2023-05-13T05:32:13;355.02;;;22.50;;
64351;SDS011;50680;52.626;-8.668;2023-05-13T05:34:40;190.60;;;14.00;;
64351;SDS011;50680;52.626;-8.668;2023-05-13T05:37:07;252.40;;;12.38;;
64351;SDS011;50680;52.626;-8.668;2023-05-13T05:39:33;221.82;;;13.00;;
64351;SDS011;50680;52.626;-8.668;2023-05-13T05:42:00;242.55;;;14.32;;
64351;SDS011;50680;52.626;-8.668;2023-05-13T05:44:27;109.10;;;10.07;;
64351;SDS011;50680;52.626;-8.668;2023-05-13T05:46:54;165.25;;;12.55;;
64351;SDS011;50680;52.626;-8.668;2023-05-13T05:49:21;172.15;;;11.75;;
64351;SDS011;50680;52.626;-8.668;2023-05-13T05:51:48;116.05;;;9.65;;
64351;SDS011;50680;52.626;-8.668;2023-05-13T05:54:14;141.60;;;10.52;;
64351;SDS011;50680;52.626;-8.668;2023-05-13T05:56:41;88.53;;;8.40;;
64351;SDS011;50680;52.626;-8.668;2023-05-13T05:59:08;147.23;;;14.27;;
64351;SDS011;50680;52.626;-8.668;2023-05-13T06:01:35;118.03;;;10.60;;
64351;SDS011;50680;52.626;-8.668;2023-05-13T06:04:02;87.22;;;8.68;;
64351;SDS011;50680;52.626;-8.668;2023-05-13T06:06:29;197.38;;;11.15;;
64351;SDS011;50680;52.626;-8.668;2023-05-13T06:08:57;188.82;;;12.38;;
64351;SDS011;50680;52.626;-8.668;2023-05-13T06:11:24;63.97;;;6.90;;
64351;SDS011;50680;52.626;-8.668;2023-05-13T06:13:52;91.43;;;8.98;;
64351;SDS011;50680;52.626;-8.668;2023-05-13T06:16:19;52.25;;;7.07;;
64351;SDS011;50680;52.626;-8.668;2023-05-13T06:18:46;108.80;;;9.15;;
64351;SDS011;50680;52.626;-8.668;2023-05-13T06:21:13;145.60;;;8.65;;
64351;SDS011;50680;52.626;-8.668;2023-05-13T06:23:40;86.45;;;6.45;;
64351;SDS011;50680;52.626;-8.668;2023-05-13T06:26:07;56.15;;;6.53;;
64351;SDS011;50680;52.626;-8.668;2023-05-13T06:28:34;82.97;;;5.63;;
64351;SDS011;50680;52.626;-8.668;2023-05-13T06:31:01;71.07;;;6.40;;
64351;SDS011;50680;52.626;-8.668;2023-05-13T06:33:28;27.90;;;5.68;;
64351;SDS011;50680;52.626;-8.668;2023-05-13T06:35:55;70.25;;;7.40;;
64351;SDS011;50680;52.626;-8.668;2023-05-13T06:38:21;153.75;;;10.57;;
64351;SDS011;50680;52.626;-8.668;2023-05-13T06:40:48;56.40;;;6.72;;
64351;SDS011;50680;52.626;-8.668;2023-05-13T06:43:15;74.72;;;7.43;;
64351;SDS011;50680;52.626;-8.668;2023-05-13T06:45:43;23.50;;;6.40;;
64351;SDS011;50680;52.626;-8.668;2023-05-13T06:48:10;40.95;;;7.72;;
64351;SDS011;50680;52.626;-8.668;2023-05-13T06:50:37;52.28;;;8.70;;
64351;SDS011;50680;52.626;-8.668;2023-05-13T06:53:03;20.63;;;8.02;;
64351;SDS011;50680;52.626;-8.668;2023-05-13T06:55:30;18.70;;;8.93;;
64351;SDS011;50680;52.626;-8.668;2023-05-13T19:01:12;6.65;;;3.45;;
64351;SDS011;50680;52.626;-8.668;2023-05-13T19:03:41;3.97;;;2.60;;
64351;SDS011;50680;52.626;-8.668;2023-05-13T19:06:08;11.07;;;3.05;;
64351;SDS011;50680;52.626;-8.668;2023-05-13T19:08:35;6.15;;;2.78;;
64351;SDS011;50680;52.626;-8.668;2023-05-13T19:11:02;7.72;;;2.38;;
64351;SDS011;50680;52.626;-8.668;2023-05-13T19:13:28;8.10;;;2.88;;
64351;SDS011;50680;52.626;-8.668;2023-05-13T19:16:11;6.15;;;2.92;;
64351;SDS011;50680;52.626;-8.668;2023-05-13T19:18:38;5.00;;;1.75;;
64351;SDS011;50680;52.626;-8.668;2023-05-13T19:21:05;5.97;;;2.30;;
64351;SDS011;50680;52.626;-8.668;2023-05-13T19:23:32;2.78;;;1.75;;
64351;SDS011;50680;52.626;-8.668;2023-05-13T19:25:59;8.63;;;2.50;;
64351;SDS011;50680;52.626;-8.668;2023-05-13T19:28:26;6.85;;;2.28;;
64351;SDS011;50680;52.626;-8.668;2023-05-13T19:30:53;5.93;;;2.30;;
64351;SDS011;50680;52.626;-8.668;2023-05-13T19:33:20;9.23;;;2.38;;
64351;SDS011;50680;52.626;-8.668;2023-05-13T19:35:46;7.97;;;2.78;;
64351;SDS011;50680;52.626;-8.668;2023-05-13T19:38:13;7.65;;;2.65;;
64351;SDS011;50680;52.626;-8.668;2023-05-13T19:40:40;4.00;;;3.40;;
64351;SDS011;50680;52.626;-8.668;2023-05-13T19:43:09;15.15;;;6.03;;
64351;SDS011;50680;52.626;-8.668;2023-05-13T19:45:36;11.73;;;3.88;;
64351;SDS011;50680;52.626;-8.668;2023-05-13T19:48:03;15.38;;;5.72;;
64351;SDS011;50680;52.626;-8.668;2023-05-13T19:50:30;20.02;;;6.28;;
64351;SDS011;50680;52.626;-8.668;2023-05-13T19:52:57;14.50;;;4.88;;
64351;SDS011;50680;52.626;-8.668;2023-05-13T19:55:24;19.00;;;4.97;;
64351;SDS011;50680;52.626;-8.668;2023-05-13T19:57:52;9.95;;;3.53;;
64351;SDS011;50680;52.626;-8.668;2023-05-13T20:00:18;5.88;;;2.65;;
64351;SDS011;50680;52.626;-8.668;2023-05-13T20:02:46;6.03;;;2.30;;
64351;SDS011;50680;52.626;-8.668;2023-05-13T20:05:13;8.68;;;2.20;;
64351;SDS011;50680;52.626;-8.668;2023-05-13T20:07:39;6.95;;;2.10;;
64351;SDS011;50680;52.626;-8.668;2023-05-13T20:10:07;6.20;;;1.98;;
64351;SDS011;50680;52.626;-8.668;2023-05-13T20:12:34;4.57;;;1.77;;
64351;SDS011;50680;52.626;-8.668;2023-05-13T20:15:01;3.17;;;1.48;;
64351;SDS011;50680;52.626;-8.668;2023-05-13T20:17:28;4.90;;;1.77;;
64351;SDS011;50680;52.626;-8.668;2023-05-13T20:19:56;5.93;;;1.63;;
64351;SDS011;50680;52.626;-8.668;2023-05-13T20:22:23;8.07;;;1.90;;
64351;SDS011;50680;52.626;-8.668;2023-05-13T20:24:50;4.35;;;2.08;;
64351;SDS011;50680;52.626;-8.668;2023-05-13T20:27:17;6.35;;;1.70;;
64351;SDS011;50680;52.626;-8.668;2023-05-13T20:29:44;4.28;;;1.70;;
64351;SDS011;50680;52.626;-8.668;2023-05-13T20:32:13;4.40;;;1.88;;
64351;SDS011;50680;52.626;-8.668;2023-05-13T20:34:42;5.10;;;1.60;;
64351;SDS011;50680;52.626;-8.668;2023-05-13T20:37:08;4.60;;;1.50;;
64351;SDS011;50680;52.626;-8.668;2023-05-13T20:39:35;7.60;;;2.22;;
64351;SDS011;50680;52.626;-8.668;2023-05-13T20:42:02;6.18;;;1.60;;
64351;SDS011;50680;52.626;-8.668;2023-05-13T20:44:29;7.47;;;1.73;;
64351;SDS011;50680;52.626;-8.668;2023-05-13T20:46:56;5.68;;;2.10;;
64351;SDS011;50680;52.626;-8.668;2023-05-13T20:49:23;6.30;;;1.63;;
64351;SDS011;50680;52.626;-8.668;2023-05-13T20:51:49;6.35;;;2.30;;
64351;SDS011;50680;52.626;-8.668;2023-05-13T20:54:16;5.07;;;1.65;;
64351;SDS011;50680;52.626;-8.668;2023-05-13T20:56:43;6.10;;;2.30;;
64351;SDS011;50680;52.626;-8.668;2023-05-13T20:59:10;5.13;;;2.00;;
64351;SDS011;50680;52.626;-8.668;2023-05-13T21:01:37;5.13;;;2.42;;
64351;SDS011;50680;52.626;-8.668;2023-05-13T21:04:04;2.92;;;1.85;;
64351;SDS011;50680;52.626;-8.668;2023-05-13T21:06:31;2.88;;;1.80;;
64351;SDS011;50680;52.626;-8.668;2023-05-13T21:08:58;7.05;;;1.73;;
64351;SDS011;50680;52.626;-8.668;2023-05-13T21:11:25;8.02;;;2.13;;
64351;SDS011;50680;52.626;-8.668;2023-05-13T21:13:52;8.25;;;2.22;;
64351;SDS011;50680;52.626;-8.668;2023-05-13T21:16:19;9.10;;;2.55;;
64351;SDS011;50680;52.626;-8.668;2023-05-13T21:18:46;8.68;;;1.98;;
64351;SDS011;50680;52.626;-8.668;2023-05-13T21:21:13;5.35;;;2.10;;
64351;SDS011;50680;52.626;-8.668;2023-05-13T21:23:40;5.53;;;2.33;;
64351;SDS011;50680;52.626;-8.668;2023-05-13T21:26:10;9.02;;;2.47;;
64351;SDS011;50680;52.626;-8.668;2023-05-13T21:28:38;6.05;;;2.30;;
64351;SDS011;50680;52.626;-8.668;2023-05-13T21:31:05;6.40;;;2.35;;
64351;SDS011;50680;52.626;-8.668;2023-05-13T21:33:32;9.00;;;2.58;;
64351;SDS011;50680;52.626;-8.668;2023-05-13T21:35:59;9.50;;;2.67;;
64351;SDS011;50680;52.626;-8.668;2023-05-13T21:38:26;8.43;;;2.60;;
64351;SDS011;50680;52.626;-8.668;2023-05-13T21:40:53;6.85;;;3.03;;
64351;SDS011;50680;52.626;-8.668;2023-05-13T21:43:19;7.45;;;2.83;;
64351;SDS011;50680;52.626;-8.668;2023-05-13T21:45:46;6.93;;;2.60;;
64351;SDS011;50680;52.626;-8.668;2023-05-13T21:48:13;5.47;;;2.42;;
64351;SDS011;50680;52.626;-8.668;2023-05-13T21:50:40;10.35;;;3.38;;
64351;SDS011;50680;52.626;-8.668;2023-05-13T21:53:07;9.07;;;3.25;;
64351;SDS011;50680;52.626;-8.668;2023-05-13T21:55:35;6.45;;;3.22;;
64351;SDS011;50680;52.626;-8.668;2023-05-13T21:58:02;5.22;;;3.08;;
64351;SDS011;50680;52.626;-8.668;2023-05-13T22:00:29;10.40;;;3.60;;
64351;SDS011;50680;52.626;-8.668;2023-05-13T22:02:57;7.75;;;3.50;;
64351;SDS011;50680;52.626;-8.668;2023-05-13T22:05:26;9.52;;;3.42;;
64351;SDS011;50680;52.626;-8.668;2023-05-13T22:07:53;6.72;;;2.70;;
64351;SDS011;50680;52.626;-8.668;2023-05-13T22:10:19;8.85;;;3.35;;
64351;SDS011;50680;52.626;-8.668;2023-05-13T22:12:46;5.75;;;3.13;;
64351;SDS011;50680;52.626;-8.668;2023-05-13T22:15:14;8.85;;;3.70;;
64351;SDS011;50680;52.626;-8.668;2023-05-13T22:17:41;7.47;;;3.80;;
64351;SDS011;50680;52.626;-8.668;2023-05-13T22:20:08;9.23;;;3.60;;
64351;SDS011;50680;52.626;-8.668;2023-05-13T22:22:35;9.82;;;3.75;;
64351;SDS011;50680;52.626;-8.668;2023-05-13T22:25:02;9.30;;;3.60;;
64351;SDS011;50680;52.626;-8.668;2023-05-13T22:27:29;11.00;;;3.67;;
64351;SDS011;50680;52.626;-8.668;2023-05-13T22:29:56;7.90;;;4.10;;
64351;SDS011;50680;52.626;-8.668;2023-05-13T22:32:23;8.02;;;3.67;;
64351;SDS011;50680;52.626;-8.668;2023-05-13T22:34:50;9.35;;;3.58;;
64351;SDS011;50680;52.626;-8.668;2023-05-13T22:37:17;7.32;;;3.88;;
64351;SDS011;50680;52.626;-8.668;2023-05-13T22:39:44;9.32;;;4.50;;
64351;SDS011;50680;52.626;-8.668;2023-05-13T22:42:10;7.22;;;4.90;;
64351;SDS011;50680;52.626;-8.668;2023-05-13T22:44:37;10.75;;;4.90;;
64351;SDS011;50680;52.626;-8.668;2023-05-13T22:47:04;9.40;;;4.47;;
64351;SDS011;50680;52.626;-8.668;2023-05-13T22:49:31;9.85;;;4.80;;
64351;SDS011;50680;52.626;-8.668;2023-05-13T22:51:58;7.88;;;3.88;;
64351;SDS011;50680;52.626;-8.668;2023-05-13T22:54:25;8.40;;;4.10;;
64351;SDS011;50680;52.626;-8.668;2023-05-13T22:56:51;5.85;;;3.65;;
64351;SDS011;50680;52.626;-8.668;2023-05-13T22:59:18;11.50;;;4.13;;
64351;SDS011;50680;52.626;-8.668;2023-05-13T23:01:45;11.43;;;3.83;;
64351;SDS011;50680;52.626;-8.668;2023-05-13T23:04:12;11.25;;;4.40;;
64351;SDS011;50680;52.626;-8.668;2023-05-13T23:06:39;9.00;;;4.45;;
64351;SDS011;50680;52.626;-8.668;2023-05-13T23:09:06;7.80;;;4.18;;
64351;SDS011;50680;52.626;-8.668;2023-05-13T23:11:34;8.77;;;4.03;;
64351;SDS011;50680;52.626;-8.668;2023-05-13T23:14:01;12.20;;;4.68;;
64351;SDS011;50680;52.626;-8.668;2023-05-13T23:16:28;10.90;;;4.43;;
64351;SDS011;50680;52.626;-8.668;2023-05-13T23:18:55;8.60;;;4.28;;
64351;SDS011;50680;52.626;-8.668;2023-05-13T23:21:22;10.93;;;5.00;;
64351;SDS011;50680;52.626;-8.668;2023-05-13T23:23:49;8.35;;;4.35;;
64351;SDS011;50680;52.626;-8.668;2023-05-13T23:26:17;11.55;;;4.10;;
64351;SDS011;50680;52.626;-8.668;2023-05-13T23:28:44;12.82;;;4.70;;
64351;SDS011;50680;52.626;-8.668;2023-05-13T23:31:11;10.60;;;5.03;;
64351;SDS011;50680;52.626;-8.668;2023-05-13T23:33:37;9.25;;;5.15;;
64351;SDS011;50680;52.626;-8.668;2023-05-13T23:36:04;12.30;;;5.22;;
64351;SDS011;50680;52.626;-8.668;2023-05-13T23:38:31;9.43;;;4.97;;
64351;SDS011;50680;52.626;-8.668;2023-05-13T23:40:58;12.30;;;5.15;;
64351;SDS011;50680;52.626;-8.668;2023-05-13T23:43:25;13.98;;;5.45;;
64351;SDS011;50680;52.626;-8.668;2023-05-13T23:45:52;9.35;;;4.90;;
64351;SDS011;50680;52.626;-8.668;2023-05-13T23:48:19;8.15;;;4.95;;
64351;SDS011;50680;52.626;-8.668;2023-05-13T23:50:46;6.72;;;4.47;;
64351;SDS011;50680;52.626;-8.668;2023-05-13T23:53:13;8.82;;;4.43;;
64351;SDS011;50680;52.626;-8.668;2023-05-13T23:55:41;10.73;;;4.65;;
64351;SDS011;50680;52.626;-8.668;2023-05-13T23:58:08;11.55;;;4.60;;
